South Miami Heights, Florida
Current Conditions -  °F | °C
As of 1:53 PM on Tuesday 21 Oct 2014 (Local Time) from KTMB Reporting Station
Light Rain Light Rain  
Wind Chill: 78°   Ceiling: Unl
Heat Index: 81°   Visibility: 10mi
Dew Point: 75°   Wind: 8mph
Humidity: 90%   Direction: 220°SW
Pressure: 29.95"   Gusts: NA
Location:  25.6064°N, 80.3427°W
Report Text: KTMB 211753Z 22007KT 10SM -RA FEW060 FEW100 SCT120 26/24 A2995 RMK AO2 SLP143 P0003 60021 T02560239 10267 20239 58011
Loading
Personal Weather Stations






























Interactive Weather Map
Tropical Storm Tracking
New forecast layout! Learn more

10-Day Weather Forecast

Advertisements
Track Severe Weather on mobile